createdAt,value
2022-08-21T00:04:59.807Z,11
2022-08-21T00:09:59.782Z,11
2022-08-21T00:14:59.633Z,11
2022-08-21T00:19:59.865Z,11
2022-08-21T00:24:59.841Z,11
2022-08-21T00:29:59.592Z,11
2022-08-21T00:34:59.534Z,10
2022-08-21T00:39:59.467Z,10
2022-08-21T00:44:59.746Z,10
2022-08-21T00:49:59.741Z,10
2022-08-21T00:54:59.641Z,10
2022-08-21T00:59:59.433Z,10
2022-08-21T01:04:59.430Z,10
2022-08-21T01:09:59.770Z,10
2022-08-21T01:14:59.775Z,10
2022-08-21T01:19:59.669Z,9
2022-08-21T01:24:59.701Z,9
2022-08-21T01:29:59.651Z,9
2022-08-21T01:34:59.811Z,9
2022-08-21T01:39:59.525Z,9
2022-08-21T01:44:59.472Z,10
2022-08-21T01:49:59.964Z,10
2022-08-21T01:54:59.517Z,10
2022-08-21T01:59:59.759Z,10
2022-08-21T02:04:59.696Z,10
2022-08-21T02:09:59.662Z,11
2022-08-21T02:14:59.648Z,11
2022-08-21T02:19:59.591Z,11
2022-08-21T02:24:59.757Z,11
2022-08-21T02:29:59.698Z,11
2022-08-21T02:34:59.449Z,11
2022-08-21T02:39:59.635Z,11
2022-08-21T02:44:59.593Z,11
2022-08-21T02:49:59.432Z,11
2022-08-21T02:54:59.642Z,11
2022-08-21T02:59:59.530Z,12
2022-08-21T03:04:59.448Z,12
2022-08-21T03:09:59.762Z,12
2022-08-21T03:14:59.673Z,12
2022-08-21T03:19:59.663Z,12
2022-08-21T03:24:59.436Z,12
2022-08-21T03:29:59.573Z,12
2022-08-21T03:34:59.555Z,12
2022-08-21T03:39:59.813Z,13
2022-08-21T03:44:59.546Z,13
2022-08-21T03:49:59.373Z,13
2022-08-21T03:54:59.475Z,13
2022-08-21T03:59:59.585Z,13
2022-08-21T04:04:59.694Z,13
2022-08-21T04:09:59.651Z,13
2022-08-21T04:14:59.565Z,13
2022-08-21T04:19:59.335Z,13
2022-08-21T04:24:59.530Z,14
2022-08-21T04:29:59.698Z,14
2022-08-21T04:34:59.387Z,14
2022-08-21T04:39:59.504Z,14
2022-08-21T04:44:59.599Z,14
2022-08-21T04:49:59.467Z,14
2022-08-21T04:55:00.850Z,14
2022-08-21T04:59:59.450Z,14
2022-08-21T05:04:59.428Z,14
2022-08-21T05:10:00.179Z,14
2022-08-21T05:14:59.357Z,14
2022-08-21T05:19:59.275Z,14
2022-08-21T05:24:59.556Z,15
2022-08-21T05:29:59.482Z,15
2022-08-21T05:34:59.302Z,16
2022-08-21T05:40:04.803Z,16
2022-08-21T05:44:59.666Z,16
2022-08-21T05:49:59.551Z,16
2022-08-21T05:54:59.726Z,17
2022-08-21T05:59:59.451Z,17
2022-08-21T06:04:59.441Z,17
2022-08-21T06:09:59.592Z,17
2022-08-21T06:14:59.435Z,17
2022-08-21T06:19:59.346Z,17
2022-08-21T06:24:59.574Z,17
2022-08-21T06:29:59.553Z,17
2022-08-21T06:34:59.375Z,18
2022-08-21T06:39:59.344Z,18
2022-08-21T06:44:59.370Z,17
2022-08-21T06:49:59.386Z,18
2022-08-21T06:54:59.539Z,17
2022-08-21T06:59:59.832Z,17
2022-08-21T07:04:59.332Z,17
2022-08-21T07:09:59.247Z,17
2022-08-21T07:14:59.556Z,17
2022-08-21T07:19:59.742Z,17
2022-08-21T07:24:59.254Z,17
2022-08-21T07:29:59.562Z,17
2022-08-21T07:34:59.336Z,17
2022-08-21T07:39:59.449Z,17
2022-08-21T07:44:59.639Z,17
2022-08-21T07:49:59.226Z,17
2022-08-21T07:55:05.370Z,17
2022-08-21T07:59:59.440Z,17
2022-08-21T08:04:59.277Z,17
2022-08-21T08:09:59.447Z,18
2022-08-21T08:15:00.253Z,18
2022-08-21T08:19:59.306Z,18
2022-08-21T08:24:59.305Z,18
2022-08-21T08:29:59.391Z,19
2022-08-21T08:34:59.472Z,19
2022-08-21T08:39:59.723Z,19
2022-08-21T08:44:59.195Z,19
2022-08-21T08:50:02.489Z,19
2022-08-21T08:54:59.480Z,19
2022-08-21T08:59:59.222Z,19
2022-08-21T09:04:59.419Z,18
2022-08-21T09:10:05.741Z,19
2022-08-21T09:14:59.245Z,18
2022-08-21T09:20:03.058Z,18
2022-08-21T09:24:59.422Z,18
2022-08-21T09:29:59.499Z,17
2022-08-21T09:34:59.274Z,16
2022-08-21T09:39:59.607Z,16
2022-08-21T09:44:59.397Z,15
2022-08-21T09:49:59.418Z,15
2022-08-21T09:54:59.183Z,15
2022-08-21T09:59:59.346Z,14
2022-08-21T10:04:59.411Z,14
2022-08-21T10:09:59.457Z,14
2022-08-21T10:14:59.253Z,14
2022-08-21T10:19:59.334Z,13
2022-08-21T10:24:59.192Z,13
2022-08-21T10:29:59.168Z,12
2022-08-21T10:34:59.522Z,12
2022-08-21T10:39:59.304Z,12
2022-08-21T10:45:07.224Z,11
2022-08-21T10:49:59.251Z,11
2022-08-21T10:55:02.061Z,11
2022-08-21T10:59:59.111Z,11
2022-08-21T11:04:59.166Z,10
2022-08-21T11:09:59.099Z,10
2022-08-21T11:15:02.215Z,10
2022-08-21T11:19:59.254Z,10
2022-08-21T11:24:59.263Z,10
2022-08-21T11:30:00.866Z,10
2022-08-21T11:34:59.153Z,10
2022-08-21T11:39:59.259Z,10
2022-08-21T11:45:05.330Z,10
2022-08-21T11:49:59.072Z,11
2022-08-21T11:55:01.469Z,11
2022-08-21T12:00:02.047Z,11
2022-08-21T12:05:08.271Z,10
2022-08-21T12:09:59.162Z,10
2022-08-21T12:14:59.131Z,10
2022-08-21T12:20:00.412Z,10
2022-08-21T12:25:04.387Z,11
2022-08-21T12:30:00.837Z,10
2022-08-21T12:34:59.164Z,10
2022-08-21T12:39:59.176Z,10
2022-08-21T12:45:00.530Z,10
2022-08-21T12:49:59.261Z,10
2022-08-21T12:54:59.289Z,10
2022-08-21T12:59:59.162Z,10
2022-08-21T13:04:59.235Z,9
2022-08-21T13:09:59.254Z,9
2022-08-21T13:15:02.390Z,9
2022-08-21T13:19:59.330Z,9
2022-08-21T13:24:59.361Z,9
2022-08-21T13:30:02.438Z,9
2022-08-21T13:34:59.298Z,9
2022-08-21T13:39:59.235Z,9
2022-08-21T13:44:59.248Z,9
2022-08-21T13:49:59.509Z,9
2022-08-21T13:54:59.013Z,9
2022-08-21T13:59:59.242Z,9
2022-08-21T14:05:01.041Z,9
2022-08-21T14:09:59.138Z,9
2022-08-21T14:15:02.029Z,9
2022-08-21T14:19:59.071Z,9
2022-08-21T14:24:59.113Z,9
2022-08-21T14:30:00.355Z,9
2022-08-21T14:34:59.206Z,9
2022-08-21T14:39:59.497Z,8
2022-08-21T14:44:59.033Z,8
2022-08-21T14:49:59.272Z,8
2022-08-21T14:54:59.271Z,9
2022-08-21T15:00:01.703Z,9
2022-08-21T15:04:58.973Z,9
2022-08-21T15:09:59.037Z,8
2022-08-21T15:14:59.513Z,9
2022-08-21T15:19:58.970Z,9
2022-08-21T15:24:58.948Z,9
2022-08-21T15:29:59.035Z,8
2022-08-21T15:34:59.242Z,8
2022-08-21T15:39:59.347Z,8
2022-08-21T15:44:58.966Z,8
2022-08-21T15:49:58.986Z,8
2022-08-21T15:54:58.989Z,8
2022-08-21T15:59:58.977Z,8
2022-08-21T16:04:59.224Z,8
2022-08-21T16:09:59.194Z,8
2022-08-21T16:15:00.255Z,8
2022-08-21T16:19:58.866Z,8
2022-08-21T16:24:59.153Z,8
2022-08-21T16:29:59.280Z,8
2022-08-21T16:34:58.945Z,8
2022-08-21T16:39:59.074Z,8
2022-08-21T16:44:59.001Z,8
2022-08-21T16:49:58.921Z,8
2022-08-21T16:54:58.929Z,8
2022-08-21T17:00:08.422Z,8
2022-08-21T17:04:58.885Z,8
2022-08-21T17:09:59.111Z,8
2022-08-21T17:14:59.004Z,8
2022-08-21T17:19:58.931Z,9
2022-08-21T17:24:59.266Z,9
2022-08-21T17:29:59.582Z,9
2022-08-21T17:34:59.256Z,9
2022-08-21T17:39:59.521Z,9
2022-08-21T17:44:58.900Z,9
2022-08-21T17:49:58.957Z,9
2022-08-21T17:54:58.896Z,9
2022-08-21T17:59:59.064Z,9
2022-08-21T18:04:58.987Z,9
2022-08-21T18:09:58.927Z,9
2022-08-21T18:14:59.808Z,9
2022-08-21T18:19:58.863Z,8
2022-08-21T18:24:59.137Z,8
2022-08-21T18:29:59.564Z,8
2022-08-21T18:34:58.998Z,8
2022-08-21T18:40:00.622Z,8
2022-08-21T18:45:00.600Z,8
2022-08-21T18:50:00.624Z,8
2022-08-21T18:55:05.102Z,8
2022-08-21T19:00:00.639Z,8
2022-08-21T19:05:00.380Z,8
2022-08-21T19:15:00.602Z,8
2022-08-21T19:20:02.926Z,8
2022-08-21T19:25:00.452Z,8
2022-08-21T19:30:00.369Z,8
2022-08-21T19:35:00.535Z,8
2022-08-21T19:40:00.411Z,8
2022-08-21T19:45:00.295Z,8
2022-08-21T19:50:00.277Z,8
2022-08-21T19:55:00.379Z,8
2022-08-21T20:00:00.375Z,8
2022-08-21T20:05:00.468Z,8
2022-08-21T20:10:00.441Z,8
2022-08-21T20:15:00.213Z,8
2022-08-21T20:20:00.715Z,8
2022-08-21T20:25:00.398Z,8
2022-08-21T20:30:00.459Z,8
2022-08-21T20:35:00.432Z,8
2022-08-21T20:40:00.379Z,8
2022-08-21T20:45:00.494Z,8
2022-08-21T20:50:00.217Z,8
2022-08-21T20:55:05.048Z,8
2022-08-21T21:00:00.385Z,9
2022-08-21T21:05:02.118Z,9
2022-08-21T21:10:01.950Z,9
2022-08-21T21:15:00.272Z,9
2022-08-21T21:20:02.075Z,9
2022-08-21T21:25:00.484Z,9
2022-08-21T21:30:00.665Z,9
2022-08-21T21:35:00.354Z,9
2022-08-21T21:40:00.383Z,9
2022-08-21T21:45:08.830Z,10
2022-08-21T21:50:05.020Z,10
2022-08-21T21:55:00.337Z,10
2022-08-21T22:00:03.896Z,10
2022-08-21T22:05:04.828Z,10
2022-08-21T22:10:05.502Z,10
2022-08-21T22:15:00.264Z,10
2022-08-21T22:20:02.837Z,10
2022-08-21T22:25:00.254Z,10
2022-08-21T22:30:00.227Z,11
2022-08-21T22:35:00.393Z,11
2022-08-21T22:40:00.320Z,11
2022-08-21T22:45:00.156Z,11
2022-08-21T22:50:05.014Z,11
2022-08-21T22:55:00.250Z,11
2022-08-21T23:00:02.073Z,11
2022-08-21T23:05:01.556Z,11
2022-08-21T23:10:00.363Z,11
2022-08-21T23:15:03.727Z,11
2022-08-21T23:20:00.340Z,11
2022-08-21T23:25:08.210Z,11
2022-08-21T23:30:00.143Z,12
2022-08-21T23:35:00.379Z,12
2022-08-21T23:40:02.942Z,12
2022-08-21T23:45:00.244Z,12
2022-08-21T23:50:00.339Z,12
2022-08-21T23:55:00.590Z,12
